Frey Ranch - Fallon, Nevada Weather observations

Data are for observation ending at time listed.
 Day   Time    Ave.   Ave.  Ave.  Vector   Max.   Stn.    Total    Solar   Ave.  
  of    of     Air    Rel.  Wind   Wind    Wind   Baro.  Precip.   Rad.    Soil  
Year   Day     Temp.  Hum.  Speed  Dir.    Gust   Pres.                    Temp. 
2015   (PST)    F      %     mph   deg.    mph     mb.     in.     W/m2     F   
------------------------------------------------------------------------------
  26   20:40   38.6    49    1.3    98      2.2   999.0    0.00       0    41.6
  26   20:50   39.0    49    1.6    97      2.6   999.0    0.00       0    41.6
  26   21:00   40.0    50    0.7    95      1.8   999.0    0.00       0    41.6
  26   21:10   40.6    52    0.6    95      1.6   999.0    0.00       0    41.7
  26   21:20   41.1    55    1.9    94      2.6   999.0    0.00       0    41.7
  26   21:30   41.2    56    1.9    84      3.1   999.0    0.00       0    41.7
  26   21:40   41.5    55    0.6    65      1.9   999.0    0.00       0    41.8
  26   21:50   41.6    55    1.0    66      2.6   999.0    0.00       0    41.8
  26   22:00   41.4    55    1.4    66      2.9   999.0    0.00       0    41.8
  26   22:10   41.0    56    1.3    60      3.7   999.0    0.00       0    41.8
  26   22:20   40.3    55    1.1    52      2.0   999.0    0.00       0    41.8
  26   22:30   39.1    55    2.7   321      4.2   999.0    0.00       0    41.8
  26   22:40   39.4    54    3.1   324      3.9   999.0    0.00       0    41.9
  26   22:50   39.8    54    0.8   325      2.4   999.0    0.00       0    41.9
  26   23:00   38.8    49    1.8   323      2.7   999.0    0.00       0    41.9
  26   23:10   37.7    51    0.7   321      1.5   999.0    0.00       0    41.9
  26   23:20   38.4    53    1.1   356      4.2   999.0    0.00       0    41.9
  26   23:30   39.1    54    1.1    51      3.9   999.0    0.00       0    41.9
  26   23:40   38.5    55    4.3    71      5.9   999.0    0.00       0    41.9
  26   23:50   38.3    58    3.7    70      5.1   999.0    0.00       0    42.0
  27    0:00   39.4    54    2.0    75      3.4   999.0    0.00       0    42.0
  27    0:10   38.7    52    1.1   345      2.4   999.0    0.00       0    42.0
  27    0:20   38.2    54    2.2   320      3.4   999.0    0.00       0    42.0
  27    0:30   38.3    54    1.3   321      3.8   999.0    0.00       0    42.0
  27    0:40   38.3    53    1.8   326      4.0   999.0    0.00       0    42.0
  27    0:50   38.4    52    2.5    74      4.1   999.0    0.00       0    42.0
  27    1:00   38.7    52    0.7    81      2.0   999.0    0.00       0    42.0
  27    1:10   39.1    53    0.6    79      1.2   999.0    0.00       0    42.0
  27    1:20   39.7    53    1.4    78      2.2   999.0    0.00       0    42.0
  27    1:30   39.7    53    1.1    79      2.5   999.0    0.00       0    42.1
  27    1:40   40.6    53    1.1    64      2.7   999.0    0.00       0    42.1
  27    1:50   40.4    52    2.1    21      4.8   999.0    0.00       0    42.1
  27    2:00   40.4    53    2.4    13      4.1   999.0    0.00       0    42.1
  27    2:10   41.5    52    1.9    18      3.7   999.0    0.00       0    42.1
  27    2:20   41.5    51    3.3    77      4.7   999.0    0.00       0    42.1
  27    2:30   41.2    52    3.9    88      6.5   999.0    0.00       0    42.1
  27    2:40   42.7    51    5.5    80      7.6   999.0    0.00       0    42.1
  27    2:50   45.9    50    7.6   119     15.1   999.0    0.00       0    42.1
  27    3:00   50.4    49   13.5   136     19.7   999.0    0.00       0    42.1
  27    3:10   50.0    53   18.4   134     27.1   999.0    0.00       0    42.1
  27    3:20   49.2    58   19.0   129     26.7   999.0    0.00       0    42.2
  27    3:30   48.1    64   16.8   130     23.9   999.0    0.00       0    42.2
  27    3:40   47.4    68   13.7   132     18.2   999.0    0.00       0    42.2
  27    3:50   47.3    68   13.4   131     18.4   999.0    0.00       0    42.2
  27    4:00   47.5    68   13.7   126     17.5   999.0    0.00       0    42.2
  27    4:10   47.3    69   14.3   126     19.9   999.0    0.00       0    42.2
  27    4:20   46.7    72   11.3   136     15.5   999.0    0.00       0    42.2
  27    4:30   46.4    72    9.4   136     13.6   999.0    0.00       0    42.2
  27    4:40   46.1    73    6.2   142     10.2   999.0    0.00       0    42.2
  27    4:50   46.5    70    5.8   175     10.5   999.0    0.00       0    42.3
  27    5:00   46.9    68    7.1   179     10.2   999.0    0.00       0    42.3
  27    5:10   46.7    70    7.1   172     10.9   999.0    0.00       0    42.3
  27    5:20   46.6    71    8.2   157     11.8   999.0    0.00       0    42.3
  27    5:30   47.2    70   12.1   153     17.2   999.0    0.00       0    42.3
  27    5:40   47.1    70   12.9   148     18.0   999.0    0.00       0    42.3
  27    5:50   47.1    72   13.2   152     18.5   999.0    0.00       0    42.3
  27    6:00   46.9    73   14.5   160     20.8   999.0    0.00       0    42.3
  27    6:10   46.7    74   12.6   163     18.2   999.0    0.00       0    42.4
  27    6:20   46.3    76   12.5   152     16.8   999.0    0.00       0    42.4
  27    6:30   45.6    80   10.9   137     18.2   999.0    0.00       0    42.4
  27    6:40   45.1    82    9.8   163     13.6   999.0    0.00       0    42.4
  27    6:50   45.0    82   11.1   181     14.9   999.0    0.00       0    42.4
  27    7:00   45.1    82   10.4   183     13.8   999.0    0.00       0    42.4
  27    7:10   44.9    83    8.3   192     11.6   999.0    0.01       2    42.4
  27    7:20   44.7    84    8.1   188     11.2   999.0    0.01       4    42.4
  27    7:30   44.8    84    8.8   188     12.4   999.0    0.00       7    42.4
  27    7:40   45.0    83    8.4   195     13.9   999.0    0.01       8    42.5
  27    7:50   44.8    84    7.6   186     10.5   999.0    0.01       9    42.5
  27    8:00   44.9    84    7.0   188     10.9   999.0    0.00      10    42.5
  27    8:10   44.9    84    7.2   195     10.5   999.0    0.00      12    42.5
  27    8:20   44.6    84    7.0   213      9.9   999.0    0.00      17    42.5
  27    8:30   44.8    84    8.7   239     13.8   999.0    0.01      21    42.5
  27    8:40   44.5    84    6.9   260     11.8   999.0    0.01      27    42.6
  27    8:50   44.3    84    7.1   246      9.8   999.0    0.01      26    42.6
  27    9:00   44.2    84    7.0   246      9.7   999.0    0.01      25    42.6
  27    9:10   44.3    84    7.1   232      9.7   999.0    0.00      33    42.6
  27    9:20   44.3    84    7.0   225      9.9   999.0    0.02      50    42.6
  27    9:30   44.3    83    6.8   220      8.4   999.0    0.00      61    42.6
  27    9:40   44.5    83    6.1   209      8.4   999.0    0.00      71    42.7
  27    9:50   44.6    83    5.8   195      7.3   999.0    0.02      68    42.7
  27   10:00   44.9    84    6.0   192      8.6   999.0    0.00      69    42.7
  27   10:10   45.0    83    6.0   197      8.1   999.0    0.00      67    42.7
  27   10:20   45.1    82    6.3   213      8.6   999.0    0.01      69    42.7
  27   10:30   45.2    81    6.5   215      8.7   999.0    0.01      75    42.8
  27   10:40   45.3    81    7.0   225      9.7   999.0    0.00      96    42.8
  27   10:50   45.5    82    8.0   240     11.3   999.0    0.02      90    42.8
  27   11:00   45.6    83    5.9   254      9.4   999.0    0.00      94    42.8
  27   11:10   45.5    83    6.9   252     10.8   999.0    0.01      98    42.9
  27   11:20   45.4    83    8.1   252     11.7   999.0    0.01      86    42.9
  27   11:30   45.2    82    7.2   247     10.9   999.0    0.00      73    42.9
  27   11:40   45.2    82    7.1   235      9.9   999.0    0.02      76    42.9
  27   11:50   45.3    82    6.9   236      9.8   999.0    0.00      87    43.0
  27   12:00   45.3    82    7.3   229      9.9   999.0    0.01     104    43.0
  27   12:10   45.5    82    6.3   229      8.8   999.0    0.01     106    43.0
  27   12:20   45.8    83    6.4   230     11.5   999.0    0.00     121    43.1
  27   12:30   45.9    82    8.6   227     11.9   999.0    0.01     119    43.1
  27   12:40   46.0    81    8.8   235     11.9   999.0    0.01     129    43.1
  27   12:50   46.2    81    9.4   228     12.9   999.0    0.00     166    43.2
  27   13:00   46.4    81    9.0   223     12.6   999.0    0.00     208    43.2
  27   13:10   46.7    80    9.0   216     11.8   999.0    0.00     232    43.2
  27   13:20   47.1    79    8.8   220     11.6   999.0    0.00     227    43.3
  27   13:30   47.4    78    8.3   217     11.7   999.0    0.00     190    43.3
  27   13:40   47.9    76    8.6   225     11.4   999.0    0.00     197    43.3
  27   13:50   48.1    75    9.1   229     12.0   999.0    0.00     178    43.4
  27   14:00   48.0    74    8.3   226     11.6   999.0    0.00     129    43.4
  27   14:10   48.0    74    7.7   226     10.7   999.0    0.00     113    43.5
  27   14:20   48.2    74    7.4   225     10.1   999.0    0.00     112    43.5
  27   14:30   48.3    74    6.2   228      9.2   999.0    0.00      91    43.6
  27   14:40   48.5    73    6.4   240      9.4   999.0    0.00      91    43.6
  27   14:50   48.7    73    6.3   237      8.3   999.0    0.00     105    43.7
  27   15:00   48.8    74    7.1   242     10.6   999.0    0.00     105    43.7
  27   15:10   48.7    74    8.2   251     11.5   999.0    0.00      91    43.8
  27   15:20   48.7    74    7.1   258      9.5   999.0    0.00     106    43.8
  27   15:30   48.7    73    7.0   254     10.5   999.0    0.00     115    43.9
  27   15:40   48.8    73    6.8   252      9.0   999.0    0.00     104    43.9
  27   15:50   48.7    73    7.4   251     11.7   999.0    0.00      62    44.0
  27   16:00   48.6    71    7.0   257     12.7   999.0    0.00      42    44.1
  27   16:10   48.4    73    5.6   256      7.2   999.0    0.00      38    44.1
  27   16:20   48.3    73    4.9   238      6.7   999.0    0.00      32    44.2
  27   16:30   48.3    75    1.9   232      4.3   999.0    0.00      23    44.2
  27   16:40   48.2    75    0.5   261      1.8   999.0    0.00      13    44.3
  27   16:50   48.2    73    0.1   261      1.1   999.0    0.00       6    44.4
  27   17:00   48.1    73    0.0   240      0.7   999.0    0.00       2    44.4
  27   17:10   47.8    72    1.0   353      2.6   999.0    0.00       1    44.5
  27   17:20   47.4    74    0.6     3      2.3   999.0    0.00       0    44.5
  27   17:30   47.1    76    0.0     0      0.0   999.0    0.00       0    44.6
  27   17:40   46.6    76    1.1    49      3.0   999.0    0.00       0    44.7
  27   17:50   46.2    77    1.9    70      3.1   999.0    0.00       0    44.7
  27   18:00   45.6    79    1.8    73      2.6   999.0    0.00       0    44.8
  27   18:10   45.3    81    2.6    73      3.6   999.0    0.00       0    44.8
  27   18:20   45.0    82    2.2    72      3.6   999.0    0.00       0    44.9
  27   18:30   44.3    82    1.3    82      1.9   999.0    0.00       0    44.9
  27   18:40   44.1    83    0.6   121      2.2   999.0    0.00       0    45.0
  27   18:50   43.9    83    1.1   148      2.0   999.0    0.00       0    45.1
  27   19:00   43.8    83    2.0   138      4.6   999.0    0.00       0    45.1
  27   19:10   43.7    82    2.2    84      4.2   999.0    0.00       0    45.2
  27   19:20   43.5    83    2.3    70      2.9   999.0    0.00       0    45.2
  27   19:30   43.4    82    0.3    71      2.3   999.0    0.00       0    45.3
  27   19:40   42.8    83    0.2   148      2.5   999.0    0.00       0    45.3
  27   19:50   42.3    84    2.7   172      3.8   999.0    0.00       0    45.4
  27   20:00   41.9    84    2.8   197      3.5   999.0    0.00       0    45.4
  27   20:10   41.6    85    1.9   193      2.6   999.0    0.00       0    45.5
  27   20:20   41.4    85    1.2   188      2.4   999.0    0.00       0    45.5
  27   20:30   41.3    85    0.9   104      3.7   999.0    0.00       0    45.6

Return to Frey Ranch - Fallon, Nevada graphs page.


Western Regional Climate Center,wrcc@dri.edu